HRGA4: Little River, Horatio, AR

                                SHEF ID:       HRGA4     Little River near Horatio, AR
STATION TYPE: Stream Gauge
Regulating: Stage = 21.50, Flow = 17539

PRECIP STAGE RIV-FLOW BAT-LOAD
in ft cfs volt
Ccp-Rev Ccp-Rev Ccp-Rev Ccp-Rev
(America/Chicago)
09/04 00:00 0.00 5.87 1059 12.53
09/04 01:00 0.00 5.79 1012 12.50
09/04 02:00 0.00 5.71 965 12.50
09/04 03:00 0.00 5.65 931 12.48
09/04 04:00 0.00 5.67 942 12.46
09/04 05:00 0.00 5.84 1042 12.45
09/04 06:00 0.00 6.13 1218 12.44
09/04 07:00 0.00 6.42 1403 12.44
09/04 08:00 0.00 6.63 1542 12.44
09/04 09:00 0.00 6.75 1623 12.47
09/04 10:00 0.00 6.83 1678 12.53
09/04 11:00 0.00 6.87 1705 12.58
09/04 12:00 0.00 6.86 1698 12.91
09/04 13:00 0.00 6.78 1643 13.08
09/04 14:00 0.00 6.72 1602 12.98
09/04 15:00 0.00 6.64 1548 12.83
09/04 16:00 0.00 6.54 1482 12.79
09/04 17:00 0.00 6.42 1403 12.73
09/04 18:00 0.00 6.32 1338 12.75
09/04 19:00 0.00 6.19 1256 12.72
09/04 20:00 0.00 6.10 1199 12.65
09/04 21:00 0.00 5.99 1132 12.58
09/04 22:00 0.00 5.90 1077 12.57
09/04 23:00 0.00 5.81 1024 12.54
Data processed at Sat 05Sep2026 04:10 GMT

NOTICE: If you are parsing this page

Please convert to using our Data API. Starting early 2026 we will be migrating to: https://water.usace.army.mil with modern pages rendered in JavaScript. When this migration completes you will no longer be able to scrape this page! CWMSDataAPI (CDA)

Timeseries IDs (TSIDs)

TSIDs used from left to right in the data table
HORA.Precip-Inc.Total.1Hour.1Hour.Ccp-Rev
HORA.Stage.Inst.1Hour.0.Ccp-Rev
HORA.Flow.Inst.1Hour.0.Ccp-Rev
HORA.Volt-Battery Load.Inst.1Hour.0.Ccp-Rev

                            

All information presented herein is the property of the government of the United States of America and may be revised or deleted at any time without prior notice. Dissemination of this information without the expressed written consent of the Public Affairs Office, Tulsa District U.S. Army Corps of Engineers is strictly prohibited. These data are gathered electronically and, as presented, have NOT undergone any form of quality control. These data are NOT guaranteed to be valid or correct.